createdAt,value
2023-03-12T00:01:40.925Z,95135.00
2023-03-12T00:05:46.336Z,95128.00
2023-03-12T00:09:49.138Z,95136.00
2023-03-12T00:13:53.200Z,95134.00
2023-03-12T00:17:55.993Z,95122.00
2023-03-12T00:22:00.233Z,95124.00
2023-03-12T00:26:04.183Z,95123.00
2023-03-12T00:30:08.135Z,95131.00
2023-03-12T00:34:11.333Z,95128.00
2023-03-12T00:38:15.484Z,95134.00
2023-03-12T00:42:18.663Z,95135.00
2023-03-12T00:46:22.753Z,95136.00
2023-03-12T00:50:25.659Z,95135.00
2023-03-12T00:54:29.819Z,95131.00
2023-03-12T00:58:32.613Z,95127.00
2023-03-12T01:02:35.554Z,95144.00
2023-03-12T01:06:38.471Z,95128.00
2023-03-12T01:10:44.303Z,95135.00
2023-03-12T01:14:47.234Z,95131.00
2023-03-12T01:18:50.035Z,95133.00
2023-03-12T01:22:53.349Z,95131.00
2023-03-12T01:26:57.870Z,95145.00
2023-03-12T01:31:07.659Z,95148.00
2023-03-12T01:35:10.984Z,95151.00
2023-03-12T01:39:13.866Z,95149.00
2023-03-12T01:43:28.162Z,95149.00
2023-03-12T01:47:32.863Z,95141.00
2023-03-12T01:51:43.052Z,95129.00
2023-03-12T01:55:46.301Z,95125.00
2023-03-12T01:59:54.288Z,95130.00
2023-03-12T02:03:59.562Z,95127.00
2023-03-12T02:08:02.704Z,95140.00
2023-03-12T02:12:06.149Z,95142.00
2023-03-12T02:16:10.776Z,95150.00
2023-03-12T02:20:18.384Z,95148.00
2023-03-12T02:24:29.265Z,95160.00
2023-03-12T02:28:35.808Z,95158.00
2023-03-12T02:32:40.702Z,95158.00
2023-03-12T02:36:43.888Z,95157.00
2023-03-12T02:40:48.957Z,95167.00
2023-03-12T02:44:53.353Z,95161.00
2023-03-12T02:48:57.253Z,95158.00
2023-03-12T02:53:00.100Z,95159.00
2023-03-12T02:57:03.065Z,95155.00
2023-03-12T03:01:09.602Z,95175.00
2023-03-12T03:05:13.369Z,95159.00
2023-03-12T03:09:16.915Z,95161.00
2023-03-12T03:13:19.930Z,95167.00
2023-03-12T03:17:24.528Z,95172.00
2023-03-12T03:21:27.707Z,95167.00
2023-03-12T03:25:30.642Z,95167.00
2023-03-12T03:29:33.704Z,95172.00
2023-03-12T03:33:40.633Z,95165.00
2023-03-12T03:37:44.604Z,95166.00
2023-03-12T03:41:48.155Z,95177.00
2023-03-12T03:45:58.312Z,95165.00
2023-03-12T03:50:02.627Z,95173.00
2023-03-12T03:54:05.593Z,95169.00
2023-03-12T03:58:08.949Z,95181.00
2023-03-12T04:02:11.894Z,95183.00
2023-03-12T04:06:17.271Z,95188.00
2023-03-12T04:10:20.697Z,95198.00
2023-03-12T04:14:23.821Z,95191.00
2023-03-12T04:18:26.855Z,95195.00
2023-03-12T04:22:31.367Z,95184.00
2023-03-12T04:26:34.350Z,95197.00
2023-03-12T04:30:38.326Z,95205.00
2023-03-12T04:34:42.243Z,95201.00
2023-03-12T04:38:46.648Z,95212.00
2023-03-12T04:42:51.477Z,95203.00
2023-03-12T04:46:55.300Z,95187.00
2023-03-12T04:51:01.104Z,95178.00
2023-03-12T04:55:07.423Z,95180.00
2023-03-12T04:59:10.494Z,95173.00
2023-03-12T05:03:13.843Z,95182.00
2023-03-12T05:07:16.709Z,95177.00
2023-03-12T05:11:22.267Z,95173.00
2023-03-12T05:15:25.166Z,95169.00
2023-03-12T05:19:28.079Z,95145.00
2023-03-12T05:23:31.602Z,95159.00
2023-03-12T05:27:37.104Z,95175.00
2023-03-12T05:31:40.794Z,95164.00
2023-03-12T05:35:45.260Z,95163.00
2023-03-12T05:39:48.298Z,95181.00
2023-03-12T05:43:56.290Z,95190.00
2023-03-12T05:47:59.683Z,95189.00
2023-03-12T05:52:05.864Z,95190.00
2023-03-12T05:56:11.957Z,95196.00
2023-03-12T06:00:17.443Z,95195.00
2023-03-12T06:04:29.447Z,95183.00
2023-03-12T06:08:32.421Z,95184.00
2023-03-12T06:12:35.382Z,95175.00
2023-03-12T06:16:40.023Z,95159.00
2023-03-12T06:20:43.668Z,95167.00
2023-03-12T06:24:47.402Z,95175.00
2023-03-12T06:28:53.536Z,95174.00
2023-03-12T06:32:57.766Z,95185.00
2023-03-12T06:37:00.981Z,95192.00
2023-03-12T06:41:06.753Z,95194.00
2023-03-12T06:45:10.426Z,95187.00
2023-03-12T06:49:15.396Z,95195.00
2023-03-12T06:53:18.300Z,95201.00
2023-03-12T06:57:21.436Z,95208.00
2023-03-12T07:01:24.606Z,95211.00
2023-03-12T07:05:30.162Z,95207.00
2023-03-12T07:09:33.123Z,95224.00
2023-03-12T07:13:35.972Z,95214.00
2023-03-12T07:17:38.829Z,95206.00
2023-03-12T07:21:43.135Z,95215.00
2023-03-12T07:25:47.895Z,95203.00
2023-03-12T07:29:50.820Z,95217.00
2023-03-12T07:33:53.858Z,95215.00
2023-03-12T07:37:58.306Z,95213.00
2023-03-12T07:42:01.281Z,95210.00
2023-03-12T07:46:06.736Z,95218.00
2023-03-12T07:50:11.053Z,95212.00
2023-03-12T07:54:15.292Z,95211.00
2023-03-12T07:58:18.683Z,95216.00
2023-03-12T08:02:21.693Z,95227.00
2023-03-12T08:06:24.579Z,95231.00
2023-03-12T08:10:28.997Z,95235.00
2023-03-12T08:14:31.987Z,95233.00
2023-03-12T08:18:34.859Z,95223.00
2023-03-12T08:22:38.414Z,95234.00
2023-03-12T08:26:42.671Z,95235.00
2023-03-12T08:30:47.911Z,95251.00
2023-03-12T08:34:50.910Z,95245.00
2023-03-12T08:38:53.942Z,95258.00
2023-03-12T08:42:58.160Z,95254.00
2023-03-12T08:47:01.301Z,95262.00
2023-03-12T08:51:05.911Z,95259.00
2023-03-12T08:55:09.616Z,95258.00
2023-03-12T08:59:14.905Z,95260.00
2023-03-12T09:03:17.949Z,95267.00
2023-03-12T09:07:22.206Z,95268.00
2023-03-12T09:11:25.019Z,95262.00
2023-03-12T09:15:29.570Z,95275.00
2023-03-12T09:19:32.445Z,95259.00
2023-03-12T09:23:35.393Z,95280.00
2023-03-12T09:27:38.596Z,95271.00
2023-03-12T09:31:42.873Z,95271.00
2023-03-12T09:35:45.840Z,95271.00
2023-03-12T09:39:50.900Z,95290.00
2023-03-12T09:43:57.710Z,95291.00
2023-03-12T09:48:04.068Z,95273.00
2023-03-12T09:52:12.907Z,95273.00
2023-03-12T09:56:18.960Z,95265.00
2023-03-12T10:00:25.131Z,95269.00
2023-03-12T10:04:58.686Z,95272.00
2023-03-12T10:09:13.523Z,95282.00
2023-03-12T10:13:29.034Z,95274.00
2023-03-12T10:17:43.588Z,95280.00
2023-03-12T10:21:54.972Z,95282.00
2023-03-12T10:26:01.013Z,95269.00
2023-03-12T10:30:14.137Z,95271.00
2023-03-12T10:34:22.482Z,95266.00
2023-03-12T10:38:30.551Z,95277.00
2023-03-12T10:42:33.930Z,95282.00
2023-03-12T10:47:00.660Z,95275.00
2023-03-12T10:51:06.572Z,95275.00
2023-03-12T10:55:17.601Z,95280.00
2023-03-12T10:59:26.677Z,95276.00
2023-03-12T11:03:30.296Z,95277.00
2023-03-12T11:07:35.346Z,95266.00
2023-03-12T11:11:39.591Z,95268.00
2023-03-12T11:15:44.085Z,95266.00
2023-03-12T11:19:46.947Z,95272.00
2023-03-12T11:24:07.784Z,95268.00
2023-03-12T11:28:21.827Z,95259.00
2023-03-12T11:32:30.029Z,95265.00
2023-03-12T11:36:44.896Z,95253.00
2023-03-12T11:41:03.977Z,95258.00
2023-03-12T11:45:19.553Z,95268.00
2023-03-12T11:49:32.476Z,95248.00
2023-03-12T11:53:53.965Z,95258.00
2023-03-12T11:58:09.175Z,95259.00
2023-03-12T12:02:28.531Z,95256.00
2023-03-12T12:06:40.493Z,95252.00
2023-03-12T12:10:50.860Z,95257.00
2023-03-12T12:15:10.277Z,95257.00
2023-03-12T12:19:25.033Z,95260.00
2023-03-12T12:23:40.853Z,95254.00
2023-03-12T12:27:51.685Z,95254.00
2023-03-12T12:31:57.092Z,95250.00
2023-03-12T12:36:02.206Z,95253.00
2023-03-12T12:40:15.094Z,95251.00
2023-03-12T12:44:22.601Z,95244.00
2023-03-12T12:48:30.365Z,95241.00
2023-03-12T12:52:35.496Z,95242.00
2023-03-12T12:56:46.997Z,95247.00
2023-03-12T13:00:52.267Z,95248.00
2023-03-12T13:04:57.057Z,95240.00
2023-03-12T13:09:15.920Z,95233.00
2023-03-12T13:13:21.878Z,95233.00
2023-03-12T13:17:31.240Z,95235.00
2023-03-12T13:21:40.673Z,95243.00
2023-03-12T13:25:56.699Z,95245.00
2023-03-12T13:30:01.961Z,95245.00
2023-03-12T13:34:53.557Z,95245.00
2023-03-12T13:38:59.184Z,95253.00
2023-03-12T13:43:13.160Z,95261.00
2023-03-12T13:47:23.877Z,95270.00
2023-03-12T13:51:27.336Z,95269.00
2023-03-12T13:55:31.939Z,95268.00
2023-03-12T13:59:36.538Z,95260.00
2023-03-12T14:03:42.622Z,95267.00
2023-03-12T14:08:05.379Z,95251.00
2023-03-12T14:12:15.483Z,95259.00
2023-03-12T14:16:26.287Z,95260.00
2023-03-12T14:20:30.680Z,95264.00
2023-03-12T14:24:38.135Z,95269.00
2023-03-12T14:28:42.975Z,95270.00
2023-03-12T14:32:48.776Z,95261.00
2023-03-12T14:36:59.570Z,95253.00
2023-03-12T14:41:05.061Z,95252.00
2023-03-12T14:45:15.227Z,95244.00
2023-03-12T14:49:22.348Z,95240.00
2023-03-12T14:53:28.007Z,95248.00
2023-03-12T14:57:31.141Z,95254.00
2023-03-12T15:01:39.370Z,95259.00
2023-03-12T15:05:48.221Z,95259.00
2023-03-12T15:09:53.014Z,95261.00
2023-03-12T15:14:02.179Z,95258.00
2023-03-12T15:18:07.739Z,95264.00
2023-03-12T15:22:16.688Z,95268.00
2023-03-12T15:26:29.861Z,95262.00
2023-03-12T15:30:33.432Z,95266.00
2023-03-12T15:34:38.112Z,95264.00
2023-03-12T15:38:47.243Z,95268.00
2023-03-12T15:42:51.060Z,95266.00
2023-03-12T15:46:56.774Z,95264.00
2023-03-12T15:51:00.189Z,95259.00
2023-03-12T15:55:20.096Z,95266.00
2023-03-12T15:59:26.498Z,95271.00
2023-03-12T16:03:29.300Z,95268.00
2023-03-12T16:07:32.673Z,95268.00
2023-03-12T16:11:38.923Z,95269.00
2023-03-12T16:15:41.775Z,95255.00
2023-03-12T16:19:44.774Z,95259.00
2023-03-12T16:23:47.661Z,95270.00
2023-03-12T16:27:53.927Z,95265.00
2023-03-12T16:31:57.197Z,95258.00
2023-03-12T16:36:00.251Z,95261.00
2023-03-12T16:40:04.130Z,95268.00
2023-03-12T16:44:09.551Z,95268.00
2023-03-12T16:48:16.564Z,95279.00
2023-03-12T16:52:21.162Z,95278.00
2023-03-12T16:56:25.917Z,95285.00
2023-03-12T17:00:32.050Z,95288.00
2023-03-12T17:04:34.795Z,95292.00
2023-03-12T17:08:37.952Z,95298.00
2023-03-12T17:12:41.368Z,95295.00
2023-03-12T17:16:45.508Z,95309.00
2023-03-12T17:20:50.851Z,95305.00
2023-03-12T17:24:53.586Z,95302.00
2023-03-12T17:28:56.337Z,95302.00
2023-03-12T17:33:04.592Z,95312.00
2023-03-12T17:37:07.432Z,95312.00
2023-03-12T17:41:25.474Z,95313.00
2023-03-12T17:45:29.559Z,95306.00
2023-03-12T17:49:33.805Z,95312.00
2023-03-12T17:53:36.730Z,95302.00
2023-03-12T17:57:39.926Z,95306.00
2023-03-12T18:01:42.791Z,95310.00
2023-03-12T18:05:46.939Z,95306.00
2023-03-12T18:09:49.730Z,95322.00
2023-03-12T18:13:52.480Z,95319.00
2023-03-12T18:17:56.768Z,95320.00
2023-03-12T18:22:00.968Z,95325.00
2023-03-12T18:26:04.688Z,95318.00
2023-03-12T18:30:11.426Z,95322.00
2023-03-12T18:34:14.248Z,95316.00
2023-03-12T18:38:18.612Z,95321.00
2023-03-12T18:42:21.446Z,95314.00
2023-03-12T18:46:24.982Z,95313.00
2023-03-12T18:50:27.858Z,95316.00
2023-03-12T18:54:33.618Z,95316.00
2023-03-12T18:58:37.084Z,95327.00
2023-03-12T19:02:40.065Z,95325.00
2023-03-12T19:06:50.820Z,95343.00
2023-03-12T19:10:55.604Z,95331.00
2023-03-12T19:14:58.413Z,95341.00
2023-03-12T19:19:01.159Z,95346.00
2023-03-12T19:23:03.933Z,95352.00
2023-03-12T19:27:08.078Z,95361.00
2023-03-12T19:31:14.957Z,95366.00
2023-03-12T19:35:17.969Z,95356.00
2023-03-12T19:39:21.810Z,95356.00
2023-03-12T19:43:26.951Z,95348.00
2023-03-12T19:47:33.104Z,95365.00
2023-03-12T19:51:36.070Z,95347.00
2023-03-12T19:55:38.888Z,95359.00
2023-03-12T19:59:43.021Z,95365.00
2023-03-12T20:03:45.806Z,95366.00
2023-03-12T20:07:48.848Z,95377.00
2023-03-12T20:11:51.766Z,95374.00
2023-03-12T20:15:55.905Z,95376.00
2023-03-12T20:19:58.724Z,95385.00
2023-03-12T20:24:02.149Z,95388.00
2023-03-12T20:28:05.244Z,95390.00
2023-03-12T20:32:09.547Z,95376.00
2023-03-12T20:36:14.073Z,95380.00
2023-03-12T20:40:16.956Z,95377.00
2023-03-12T20:44:19.733Z,95363.00
2023-03-12T20:48:23.846Z,95365.00
2023-03-12T20:52:26.660Z,95362.00
2023-03-12T20:56:29.449Z,95368.00
2023-03-12T21:00:32.298Z,95370.00
2023-03-12T21:04:36.599Z,95376.00
2023-03-12T21:08:39.414Z,95367.00
2023-03-12T21:12:42.881Z,95368.00
2023-03-12T21:16:45.774Z,95375.00
2023-03-12T21:20:50.005Z,95378.00
2023-03-12T21:24:52.816Z,95376.00
2023-03-12T21:28:56.562Z,95384.00
2023-03-12T21:32:59.735Z,95389.00
2023-03-12T21:37:03.960Z,95400.00
2023-03-12T21:41:07.360Z,95406.00
2023-03-12T21:45:11.542Z,95395.00
2023-03-12T21:49:17.794Z,95394.00
2023-03-12T21:53:23.993Z,95390.00
2023-03-12T21:57:28.568Z,95391.00
2023-03-12T22:01:31.511Z,95388.00
2023-03-12T22:05:34.364Z,95384.00
2023-03-12T22:09:38.560Z,95384.00
2023-03-12T22:13:41.585Z,95386.00
2023-03-12T22:17:44.366Z,95384.00
2023-03-12T22:21:47.195Z,95379.00
2023-03-12T22:25:51.601Z,95384.00
2023-03-12T22:29:57.301Z,95381.00
2023-03-12T22:34:00.162Z,95381.00
2023-03-12T22:38:03.019Z,95369.00
2023-03-12T22:42:07.590Z,95363.00
2023-03-12T22:46:10.665Z,95353.00
2023-03-12T22:50:14.106Z,95350.00
2023-03-12T22:54:17.044Z,95349.00
2023-03-12T22:58:21.216Z,95336.00
2023-03-12T23:02:24.026Z,95337.00
2023-03-12T23:06:29.818Z,95333.00
2023-03-12T23:10:32.759Z,95322.00
2023-03-12T23:14:36.896Z,95324.00
2023-03-12T23:18:39.971Z,95316.00
2023-03-12T23:22:43.017Z,95307.00
2023-03-12T23:26:45.935Z,95321.00
2023-03-12T23:30:56.532Z,95312.00
2023-03-12T23:34:59.316Z,95299.00
2023-03-12T23:39:03.394Z,95306.00
2023-03-12T23:43:06.231Z,95301.00
2023-03-12T23:47:10.425Z,95283.00
2023-03-12T23:51:14.964Z,95292.00
2023-03-12T23:55:17.929Z,95280.00
2023-03-12T23:59:20.776Z,95264.00
